Time;durP1;ratioP1;P1;durP2;ratioP2;P2;SDS_P1;SDS_P2;PMS_P1;PMS_P2;Temp;Humidity;BMP_temperature;BMP_pressure;BME280_temperature;BME280_humidity;BME280_pressure;Samples;Min_cycle;Max_cycle;Signal;HPM_P1;HPM_P2
2021/11/15 00:01:43;;;;;;;74.53;30.10;;;;;;;;;;5097748;28;20146;-71
2021/11/15 00:04:11;;;;;;;76.80;32.10;;;;;;;;;;5104667;28;20105;-71
2021/11/15 00:06:37;;;;;;;69.65;27.20;;;;;;;;;;5090766;28;20040;-70
2021/11/15 00:09:03;;;;;;;71.85;34.03;;;;;;;;;;5102948;28;20080;-70
2021/11/15 00:11:30;;;;;;;84.25;33.42;;;;;;;;;;5100229;28;20614;-71
2021/11/15 00:13:56;;;;;;;76.43;31.70;;;;;;;;;;5102598;28;20115;-71
2021/11/15 00:16:22;;;;;;;86.20;35.10;;;;;;;;;;5098923;28;20098;-71
2021/11/15 00:18:49;;;;;;;76.70;31.60;;;;;;;;;;5104312;28;20040;-71
2021/11/15 00:21:15;;;;;;;69.75;27.77;;;;;;;;;;5091483;28;20044;-71
2021/11/15 00:23:41;;;;;;;75.55;31.02;;;;;;;;;;5099777;28;20044;-71
2021/11/15 00:26:07;;;;;;;60.97;24.63;;;;;;;;;;5095318;28;20060;-70
2021/11/15 00:28:33;;;;;;;70.05;31.20;;;;;;;;;;5090089;28;20048;-70
2021/11/15 00:31:00;;;;;;;74.97;30.73;;;;;;;;;;5095079;28;20127;-70
2021/11/15 00:33:26;;;;;;;78.75;32.00;;;;;;;;;;5099656;28;20055;-70
2021/11/15 00:35:52;;;;;;;82.22;34.63;;;;;;;;;;5091874;28;20103;-70
2021/11/15 00:38:19;;;;;;;82.35;34.10;;;;;;;;;;5091501;28;20182;-70
2021/11/15 00:40:45;;;;;;;79.80;32.38;;;;;;;;;;5100631;28;20059;-70
2021/11/15 00:43:11;;;;;;;68.53;32.65;;;;;;;;;;5096309;28;20585;-70
2021/11/15 00:45:38;;;;;;;77.90;34.15;;;;;;;;;;5090158;28;20222;-71
2021/11/15 00:48:05;;;;;;;85.88;32.85;;;;;;;;;;5097134;28;20064;-70
2021/11/15 00:50:31;;;;;;;72.00;27.33;;;;;;;;;;5102347;28;20140;-70
2021/11/15 00:52:58;;;;;;;52.72;23.48;;;;;;;;;;5087037;28;20068;-70
2021/11/15 00:55:24;;;;;;;77.82;28.10;;;;;;;;;;5086879;28;20055;-71
2021/11/15 00:57:50;;;;;;;74.28;31.38;;;;;;;;;;5087009;28;20058;-71
2021/11/15 01:00:18;;;;;;;73.30;31.35;;;;;;;;;;5105837;28;20050;-71
2021/11/15 01:02:44;;;;;;;;;;;;;;;;;;5105538;28;20040;-71
2021/11/15 01:05:10;;;;;;;77.75;32.90;;;;;;;;;;5087151;28;19966;-71
2021/11/15 01:07:36;;;;;;;68.90;28.60;;;;;;;;;;5104876;28;20119;-70
2021/11/15 01:10:04;;;;;;;66.03;27.58;;;;;;;;;;5104438;28;20044;-70
2021/11/15 01:12:30;;;;;;;65.63;30.23;;;;;;;;;;5105709;28;20051;-71
2021/11/15 01:14:56;;;;;;;52.05;22.90;;;;;;;;;;5101586;28;20044;-71
2021/11/15 01:17:22;;;;;;;60.58;25.40;;;;;;;;;;5076411;28;20040;-71
2021/11/15 01:19:48;;;;;;;64.13;25.30;;;;;;;;;;5104578;28;20051;-71
2021/11/15 01:22:14;;;;;;;57.28;23.52;;;;;;;;;;5086591;28;20073;-70
2021/11/15 01:24:41;;;;;;;71.88;30.95;;;;;;;;;;5069041;28;20059;-71
2021/11/15 01:27:07;;;;;;;66.18;26.67;;;;;;;;;;5105113;28;20036;-71
2021/11/15 01:29:33;;;;;;;79.18;31.15;;;;;;;;;;5085894;28;20043;-71
2021/11/15 01:32:00;;;;;;;75.68;31.25;;;;;;;;;;5104492;28;20130;-71
2021/11/15 01:34:27;;;;;;;72.78;30.75;;;;;;;;;;5086387;28;20059;-71
2021/11/15 01:36:53;;;;;;;75.82;32.67;;;;;;;;;;5104588;28;20054;-71
2021/11/15 01:39:19;;;;;;;77.57;32.03;;;;;;;;;;5086191;28;20089;-71
2021/11/15 01:41:46;;;;;;;77.38;29.20;;;;;;;;;;5069141;28;20120;-71
2021/11/15 01:44:12;;;;;;;72.30;31.38;;;;;;;;;;5086420;28;20107;-71
2021/11/15 01:46:38;;;;;;;74.07;31.85;;;;;;;;;;5104451;28;20130;-71
2021/11/15 01:49:04;;;;;;;72.38;25.67;;;;;;;;;;5108305;28;20064;-70
2021/11/15 01:51:30;;;;;;;69.80;29.95;;;;;;;;;;5106683;28;20113;-70
2021/11/15 01:53:57;;;;;;;72.13;28.00;;;;;;;;;;5086597;28;20055;-70
2021/11/15 01:56:23;;;;;;;60.25;24.50;;;;;;;;;;5099717;28;20036;-71
2021/11/15 01:58:49;;;;;;;74.13;31.30;;;;;;;;;;5115353;28;20498;-71
2021/11/15 02:01:15;;;;;;;72.22;30.15;;;;;;;;;;5106353;28;20046;-69
2021/11/15 02:03:41;;;;;;;57.88;22.40;;;;;;;;;;5124704;28;20078;-70
2021/11/15 02:06:10;;;;;;;74.60;32.10;;;;;;;;;;5124580;28;20055;-69
2021/11/15 02:08:37;;;;;;;70.38;28.17;;;;;;;;;;5105668;28;20043;-70
2021/11/15 02:11:03;;;;;;;68.40;28.90;;;;;;;;;;5091931;28;20044;-70
2021/11/15 02:13:29;;;;;;;64.80;28.42;;;;;;;;;;5124090;28;20035;-71
2021/11/15 02:15:56;;;;;;;68.90;26.88;;;;;;;;;;5106275;28;20502;-72
2021/11/15 02:18:22;;;;;;;66.63;25.63;;;;;;;;;;5105439;28;20050;-71
2021/11/15 02:20:50;;;;;;;66.10;26.63;;;;;;;;;;5104428;28;20047;-70
2021/11/15 02:23:17;;;;;;;69.20;28.73;;;;;;;;;;5124604;28;20051;-70
2021/11/15 02:25:44;;;;;;;58.33;21.43;;;;;;;;;;5123774;28;20051;-70
2021/11/15 02:28:11;;;;;;;60.70;23.90;;;;;;;;;;5097783;28;20301;-70
2021/11/15 02:30:37;;;;;;;56.00;19.58;;;;;;;;;;5105650;28;20044;-70
2021/11/15 02:33:03;;;;;;;52.33;20.20;;;;;;;;;;5124506;28;20127;-70
2021/11/15 02:35:30;;;;;;;59.85;24.73;;;;;;;;;;5105805;28;20046;-70
2021/11/15 02:37:56;;;;;;;67.32;25.77;;;;;;;;;;5101339;28;20039;-70
2021/11/15 02:40:25;;;;;;;65.88;26.08;;;;;;;;;;5103000;28;20043;-69
2021/11/15 02:42:51;;;;;;;62.25;25.75;;;;;;;;;;5126420;28;20044;-70
2021/11/15 02:45:18;;;;;;;66.80;25.55;;;;;;;;;;5110050;28;20059;-70
2021/11/15 02:47:44;;;;;;;52.08;20.80;;;;;;;;;;5108092;28;20130;-71
2021/11/15 02:50:18;;;;;;;67.50;25.52;;;;;;;;;;5128269;28;20051;-71
2021/11/15 02:52:45;;;;;;;49.53;20.42;;;;;;;;;;5109844;28;20047;-70
2021/11/15 02:55:11;;;;;;;54.13;20.15;;;;;;;;;;5127561;28;20043;-71
2021/11/15 02:57:37;;;;;;;59.08;24.52;;;;;;;;;;5099015;28;20444;-71
2021/11/15 03:00:05;;;;;;;55.90;21.45;;;;;;;;;;5127652;28;20103;-71
2021/11/15 03:02:31;;;;;;;64.47;26.05;;;;;;;;;;5109721;28;20052;-71
2021/11/15 03:04:57;;;;;;;62.92;25.10;;;;;;;;;;5093017;28;20057;-71
2021/11/15 03:07:23;;;;;;;67.53;26.55;;;;;;;;;;5080296;28;20048;-70
2021/11/15 03:09:50;;;;;;;66.80;24.10;;;;;;;;;;5109040;28;20589;-71
2021/11/15 03:12:16;;;;;;;67.20;27.50;;;;;;;;;;5127897;28;20124;-71
2021/11/15 03:14:42;;;;;;;72.63;28.52;;;;;;;;;;5127720;28;20043;-71
2021/11/15 03:17:08;;;;;;;77.97;28.45;;;;;;;;;;5116883;28;20044;-71
2021/11/15 03:19:34;;;;;;;74.03;27.60;;;;;;;;;;5124929;28;20043;-71
2021/11/15 03:22:00;;;;;;;89.13;31.88;;;;;;;;;;5127778;28;20542;-71
2021/11/15 03:24:26;;;;;;;90.30;30.83;;;;;;;;;;5127214;28;20039;-71
2021/11/15 03:26:52;;;;;;;100.63;34.90;;;;;;;;;;5100798;28;20593;-71
2021/11/15 03:29:18;;;;;;;94.50;32.88;;;;;;;;;;5102296;28;20054;-71
2021/11/15 03:31:44;;;;;;;96.30;33.75;;;;;;;;;;5109106;28;20039;-70
2021/11/15 03:34:12;;;;;;;90.32;32.25;;;;;;;;;;5127110;28;20046;-71
2021/11/15 03:36:39;;;;;;;86.20;31.20;;;;;;;;;;5106388;28;20047;-71
2021/11/15 03:39:06;;;;;;;89.17;31.53;;;;;;;;;;5108878;28;20166;-71
2021/11/15 03:41:37;;;;;;;84.53;31.63;;;;;;;;;;5126867;28;20050;-72
2021/11/15 03:44:03;;;;;;;78.55;29.92;;;;;;;;;;5127454;28;20067;-73
2021/11/15 03:46:29;;;;;;;83.30;30.08;;;;;;;;;;5091384;28;20052;-73
2021/11/15 03:48:56;;;;;;;67.50;25.17;;;;;;;;;;5094521;28;20040;-73
2021/11/15 03:51:22;;;;;;;89.97;30.08;;;;;;;;;;5108471;28;20071;-73
2021/11/15 03:53:48;;;;;;;79.65;31.67;;;;;;;;;;5107264;28;20036;-73
2021/11/15 03:56:15;;;;;;;87.57;29.73;;;;;;;;;;5126165;28;20048;-73
2021/11/15 03:58:42;;;;;;;85.47;30.90;;;;;;;;;;5108450;28;20051;-72
2021/11/15 04:01:09;;;;;;;86.65;31.75;;;;;;;;;;5127299;28;20285;-73
2021/11/15 04:03:36;;;;;;;83.70;33.05;;;;;;;;;;5104379;28;20044;-74
2021/11/15 04:06:09;;;;;;;83.10;33.03;;;;;;;;;;5108127;28;20065;-73
2021/11/15 04:08:35;;;;;;;84.00;30.13;;;;;;;;;;5108470;28;20050;-73
2021/11/15 04:11:02;;;;;;;84.97;31.80;;;;;;;;;;5101953;28;20108;-73
2021/11/15 04:13:30;;;;;;;80.18;31.00;;;;;;;;;;5097968;28;20068;-71
2021/11/15 04:15:58;;;;;;;83.00;28.38;;;;;;;;;;5124902;28;20054;-72
2021/11/15 04:18:25;;;;;;;86.05;28.92;;;;;;;;;;5126666;28;20043;-72
2021/11/15 04:20:51;;;;;;;79.93;28.07;;;;;;;;;;5126402;28;20035;-72
2021/11/15 04:23:17;;;;;;;79.43;27.88;;;;;;;;;;5122726;28;20325;-72
2021/11/15 04:25:44;;;;;;;78.60;25.52;;;;;;;;;;5102718;28;20100;-72
2021/11/15 04:28:10;;;;;;;68.95;26.02;;;;;;;;;;5107737;28;20123;-72
2021/11/15 04:30:36;;;;;;;76.65;27.48;;;;;;;;;;5126048;28;20051;-72
2021/11/15 04:33:03;;;;;;;82.57;31.27;;;;;;;;;;5124840;28;20039;-72
2021/11/15 04:35:30;;;;;;;81.45;26.90;;;;;;;;;;5113256;28;20062;-72
2021/11/15 04:37:57;;;;;;;83.72;26.55;;;;;;;;;;5107838;28;20075;-72
2021/11/15 04:40:23;;;;;;;78.35;28.13;;;;;;;;;;5125563;28;20103;-72
2021/11/15 04:42:49;;;;;;;77.13;27.92;;;;;;;;;;5125025;28;20040;-72
2021/11/15 04:45:15;;;;;;;66.60;21.90;;;;;;;;;;5123539;28;20418;-72
2021/11/15 04:47:41;;;;;;;77.07;26.75;;;;;;;;;;5126007;28;20057;-72
2021/11/15 04:50:08;;;;;;;82.38;26.55;;;;;;;;;;5105511;28;20060;-72
2021/11/15 04:52:35;;;;;;;73.10;25.02;;;;;;;;;;5125751;28;20054;-72
2021/11/15 04:55:01;;;;;;;73.25;25.00;;;;;;;;;;5104993;28;20051;-72
2021/11/15 04:57:27;;;;;;;74.43;24.92;;;;;;;;;;5112043;28;20055;-72
2021/11/15 04:59:53;;;;;;;80.30;28.73;;;;;;;;;;5125465;28;20040;-72
2021/11/15 05:02:20;;;;;;;80.15;27.33;;;;;;;;;;5125442;28;20053;-72
2021/11/15 05:04:46;;;;;;;75.00;25.05;;;;;;;;;;5123718;28;20044;-72
2021/11/15 05:07:12;;;;;;;86.85;29.15;;;;;;;;;;5107391;28;20052;-72
2021/11/15 05:09:39;;;;;;;90.70;31.88;;;;;;;;;;5124555;28;20055;-70
2021/11/15 05:12:05;;;;;;;103.50;33.08;;;;;;;;;;5104646;28;20051;-73
2021/11/15 05:14:31;;;;;;;90.80;35.28;;;;;;;;;;5106918;28;20051;-72
2021/11/15 05:16:58;;;;;;;98.47;33.35;;;;;;;;;;5107474;28;20066;-73
2021/11/15 05:19:24;;;;;;;87.05;32.90;;;;;;;;;;5125256;28;20035;-72
2021/11/15 05:21:50;;;;;;;92.25;32.60;;;;;;;;;;5106442;28;20054;-72
2021/11/15 05:24:16;;;;;;;95.65;32.90;;;;;;;;;;5122223;28;20043;-72
2021/11/15 05:26:42;;;;;;;97.70;33.95;;;;;;;;;;5106705;28;20069;-72
2021/11/15 05:29:08;;;;;;;91.22;32.95;;;;;;;;;;5124778;28;20093;-72
2021/11/15 05:31:35;;;;;;;106.43;34.85;;;;;;;;;;5124413;28;20039;-72
2021/11/15 05:34:02;;;;;;;112.00;36.38;;;;;;;;;;5125148;28;20039;-72
2021/11/15 05:36:28;;;;;;;86.77;31.40;;;;;;;;;;5106670;28;20047;-72
2021/11/15 05:38:54;;;;;;;97.85;34.88;;;;;;;;;;5107148;28;20323;-72
2021/11/15 05:41:20;;;;;;;93.57;34.65;;;;;;;;;;5095695;28;20169;-72
2021/11/15 05:43:46;;;;;;;102.25;36.80;;;;;;;;;;5106029;28;20039;-72
2021/11/15 05:46:12;;;;;;;96.72;34.33;;;;;;;;;;5124812;28;20043;-72
2021/11/15 05:48:38;;;;;;;108.68;37.72;;;;;;;;;;5124316;28;20107;-72
2021/11/15 05:51:04;;;;;;;96.65;34.70;;;;;;;;;;5116592;28;20052;-73
2021/11/15 05:53:31;;;;;;;90.72;34.45;;;;;;;;;;5106159;28;20031;-73
2021/11/15 05:55:57;;;;;;;98.88;34.47;;;;;;;;;;5124165;28;20543;-73
2021/11/15 05:58:23;;;;;;;86.80;34.75;;;;;;;;;;5124565;28;20047;-73
2021/11/15 06:00:49;;;;;;;91.15;36.10;;;;;;;;;;5122059;28;20032;-72
2021/11/15 06:03:15;;;;;;;103.22;37.88;;;;;;;;;;5124645;28;20055;-73
2021/11/15 06:05:42;;;;;;;99.20;36.55;;;;;;;;;;5124839;28;20109;-73
2021/11/15 06:08:08;;;;;;;97.90;37.47;;;;;;;;;;5106144;28;20077;-73
2021/11/15 06:10:34;;;;;;;92.18;35.92;;;;;;;;;;5104225;28;20040;-73
2021/11/15 06:13:00;;;;;;;97.90;34.78;;;;;;;;;;5106377;28;20044;-73
2021/11/15 06:15:26;;;;;;;107.65;38.17;;;;;;;;;;5124324;28;20043;-73
2021/11/15 06:17:52;;;;;;;104.55;34.20;;;;;;;;;;5105405;28;20044;-72
2021/11/15 06:20:19;;;;;;;87.18;29.27;;;;;;;;;;5105767;28;20047;-73
2021/11/15 06:22:46;;;;;;;99.50;35.35;;;;;;;;;;5123473;28;20044;-72
2021/11/15 06:25:13;;;;;;;103.53;34.20;;;;;;;;;;5105759;28;20058;-72
2021/11/15 06:27:39;;;;;;;104.82;39.10;;;;;;;;;;5105877;28;20043;-73
2021/11/15 06:30:06;;;;;;;110.40;37.00;;;;;;;;;;5104603;28;20043;-72
2021/11/15 06:32:32;;;;;;;114.63;39.60;;;;;;;;;;5096985;28;20403;-72
2021/11/15 06:34:58;;;;;;;106.85;36.00;;;;;;;;;;5123359;28;20808;-73
2021/11/15 06:37:25;;;;;;;109.30;36.33;;;;;;;;;;5105330;28;20036;-73
2021/11/15 06:39:51;;;;;;;87.93;30.88;;;;;;;;;;5092234;28;20085;-73
2021/11/15 06:42:17;;;;;;;94.15;30.63;;;;;;;;;;5117243;28;20067;-73
2021/11/15 06:44:43;;;;;;;97.90;32.05;;;;;;;;;;5116221;28;20051;-72
2021/11/15 06:47:10;;;;;;;96.30;34.10;;;;;;;;;;5116366;28;20453;-73
2021/11/15 06:49:36;;;;;;;98.13;32.08;;;;;;;;;;5115189;28;20081;-73
2021/11/15 06:52:03;;;;;;;84.20;30.90;;;;;;;;;;5112977;28;20043;-73
2021/11/15 06:54:29;;;;;;;95.78;32.03;;;;;;;;;;5109895;28;20040;-73
2021/11/15 06:56:55;;;;;;;86.72;30.65;;;;;;;;;;5112086;28;20044;-72
2021/11/15 06:59:21;;;;;;;78.82;28.10;;;;;;;;;;5115411;28;20055;-73
2021/11/15 07:01:48;;;;;;;86.78;28.88;;;;;;;;;;5118298;28;20112;-73
2021/11/15 07:04:14;;;;;;;76.60;25.08;;;;;;;;;;5109927;28;20047;-73
2021/11/15 07:06:41;;;;;;;85.15;23.33;;;;;;;;;;5112034;28;20263;-73
2021/11/15 07:09:08;;;;;;;80.20;25.55;;;;;;;;;;5117046;28;20048;-73
2021/11/15 07:11:37;;;;;;;79.70;24.95;;;;;;;;;;5109731;28;20059;-73
2021/11/15 07:14:05;;;;;;;68.15;21.35;;;;;;;;;;5078649;28;20052;-73
2021/11/15 07:16:31;;;;;;;81.03;23.58;;;;;;;;;;5121443;28;20108;-73
2021/11/15 07:18:57;;;;;;;71.95;21.38;;;;;;;;;;5113159;28;20044;-73
2021/11/15 07:21:24;;;;;;;74.15;23.38;;;;;;;;;;5094339;28;20236;-73
2021/11/15 07:23:50;;;;;;;77.45;22.85;;;;;;;;;;5092011;28;20050;-73
2021/11/15 07:26:18;;;;;;;78.00;23.85;;;;;;;;;;5114835;28;20390;-73
2021/11/15 07:28:44;;;;;;;;;;;;;;;;;;5102391;28;20051;-73
2021/11/15 07:31:10;;;;;;;71.65;22.77;;;;;;;;;;5127100;28;19994;-73
2021/11/15 07:33:38;;;;;;;67.57;22.05;;;;;;;;;;5127441;28;20039;-73
2021/11/15 07:36:04;;;;;;;80.80;23.30;;;;;;;;;;5108890;28;20079;-73
2021/11/15 07:38:31;;;;;;;71.38;22.05;;;;;;;;;;5100571;28;20526;-73
2021/11/15 07:40:57;;;;;;;64.75;21.65;;;;;;;;;;5126788;28;20040;-72
2021/11/15 07:43:23;;;;;;;73.05;22.77;;;;;;;;;;5127756;28;20135;-73
2021/11/15 07:45:49;;;;;;;57.72;18.02;;;;;;;;;;5118259;28;20094;-73
2021/11/15 07:48:15;;;;;;;69.70;21.50;;;;;;;;;;5121533;28;20051;-72
2021/11/15 07:50:41;;;;;;;66.15;22.35;;;;;;;;;;5108921;28;20075;-73
2021/11/15 07:53:08;;;;;;;70.93;21.15;;;;;;;;;;5108836;28;20052;-72
2021/11/15 07:55:34;;;;;;;69.07;21.63;;;;;;;;;;5115734;28;20028;-73
2021/11/15 07:58:02;;;;;;;70.75;21.67;;;;;;;;;;5108824;28;20142;-72
2021/11/15 08:00:29;;;;;;;68.68;20.60;;;;;;;;;;5127015;28;20081;-72
2021/11/15 08:02:55;;;;;;;62.40;19.55;;;;;;;;;;5125965;28;20031;-73
2021/11/15 08:05:21;;;;;;;56.20;17.08;;;;;;;;;;5112290;28;20050;-71
2021/11/15 08:07:47;;;;;;;64.32;20.48;;;;;;;;;;5098039;28;20067;-71
2021/11/15 08:10:14;;;;;;;65.82;18.67;;;;;;;;;;5116735;28;20047;-72
2021/11/15 08:12:42;;;;;;;58.42;19.45;;;;;;;;;;5098417;28;20063;-72
2021/11/15 08:15:09;;;;;;;62.28;19.08;;;;;;;;;;5103240;28;20047;-72
2021/11/15 08:17:39;;;;;;;57.30;15.95;;;;;;;;;;5113114;28;20036;-72
2021/11/15 08:20:06;;;;;;;59.78;19.38;;;;;;;;;;5094081;28;20055;-72
2021/11/15 08:22:33;;;;;;;64.97;19.88;;;;;;;;;;5118367;28;20075;-72
2021/11/15 08:24:59;;;;;;;51.85;16.73;;;;;;;;;;5120864;28;20044;-72
2021/11/15 08:30:33;;;;;;;59.70;18.45;;;;;;;;;;5092210;28;20044;-72
2021/11/15 08:32:59;;;;;;;59.83;17.35;;;;;;;;;;5087783;28;20040;-71
2021/11/15 08:35:25;;;;;;;64.97;18.40;;;;;;;;;;5073724;28;20142;-65
2021/11/15 08:38:10;;;;;;;60.05;18.42;;;;;;;;;;5099955;28;20072;-64
2021/11/15 08:40:36;;;;;;;60.70;18.80;;;;;;;;;;5099462;28;20043;-64
2021/11/15 08:43:02;;;;;;;59.47;17.98;;;;;;;;;;5118711;28;20080;-69
2021/11/15 08:45:30;;;;;;;52.42;17.15;;;;;;;;;;5104870;28;20043;-64
2021/11/15 08:47:57;;;;;;;51.72;16.85;;;;;;;;;;5114074;28;20112;-64
2021/11/15 08:50:23;;;;;;;51.55;16.08;;;;;;;;;;5123144;28;20104;-65
2021/11/15 08:52:49;;;;;;;46.47;14.00;;;;;;;;;;5121508;28;20031;-67
2021/11/15 08:55:15;;;;;;;46.47;15.70;;;;;;;;;;5102474;28;20047;-71
2021/11/15 08:57:41;;;;;;;51.70;16.42;;;;;;;;;;5097111;28;20044;-68
2021/11/15 09:00:08;;;;;;;42.70;14.88;;;;;;;;;;5112388;28;20047;-69
2021/11/15 09:02:34;;;;;;;49.50;15.05;;;;;;;;;;5117202;28;20042;-68
2021/11/15 09:05:00;;;;;;;41.20;14.23;;;;;;;;;;5116632;28;20054;-67
2021/11/15 09:07:27;;;;;;;46.30;13.13;;;;;;;;;;5117902;28;20048;-67
2021/11/15 09:09:53;;;;;;;50.88;15.10;;;;;;;;;;5099271;28;20043;-67
2021/11/15 09:12:20;;;;;;;51.05;15.30;;;;;;;;;;5113245;28;20449;-67
2021/11/15 09:14:46;;;;;;;51.15;16.45;;;;;;;;;;5111450;28;20040;-66
2021/11/15 09:17:12;;;;;;;48.95;16.08;;;;;;;;;;5089495;28;20090;-66
2021/11/15 09:19:39;;;;;;;39.50;13.65;;;;;;;;;;5118369;28;20032;-67
2021/11/15 09:22:05;;;;;;;23.85;10.65;;;;;;;;;;5115978;28;20043;-67
2021/11/15 09:24:31;;;;;;;29.48;9.23;;;;;;;;;;5111911;28;20094;-67
2021/11/15 09:26:58;;;;;;;32.40;11.45;;;;;;;;;;5113911;28;20048;-66
2021/11/15 09:29:24;;;;;;;37.67;13.52;;;;;;;;;;5095024;28;20051;-67
2021/11/15 09:31:51;;;;;;;30.90;11.98;;;;;;;;;;5093233;28;20090;-66
2021/11/15 09:34:17;;;;;;;21.13;8.35;;;;;;;;;;5094156;28;20040;-67
2021/11/15 09:36:43;;;;;;;37.80;12.27;;;;;;;;;;5112032;28;20067;-66
2021/11/15 09:39:09;;;;;;;30.13;11.10;;;;;;;;;;5098716;28;20043;-67
2021/11/15 09:41:37;;;;;;;30.20;12.75;;;;;;;;;;5096683;28;20044;-67
2021/11/15 09:44:03;;;;;;;31.50;11.98;;;;;;;;;;5101080;28;20188;-67
2021/11/15 09:46:31;;;;;;;29.98;11.23;;;;;;;;;;5102621;28;20047;-67
2021/11/15 09:49:04;;;;;;;27.33;9.98;;;;;;;;;;5117066;28;20126;-67
2021/11/15 09:51:31;;;;;;;26.10;10.13;;;;;;;;;;5099381;28;20052;-67
2021/11/15 09:53:58;;;;;;;31.25;11.32;;;;;;;;;;5112723;28;20043;-70
2021/11/15 09:56:24;;;;;;;34.37;11.03;;;;;;;;;;5098473;28;20074;-71
2021/11/15 09:58:51;;;;;;;34.17;12.65;;;;;;;;;;5100656;28;20075;-67
2021/11/15 10:01:18;;;;;;;36.63;13.50;;;;;;;;;;5122840;28;20040;-72
2021/11/15 10:03:44;;;;;;;42.30;13.20;;;;;;;;;;5115267;28;20047;-70
2021/11/15 10:06:10;;;;;;;34.78;12.75;;;;;;;;;;5098249;28;20051;-67
2021/11/15 10:08:42;;;;;;;34.90;12.48;;;;;;;;;;5097634;28;20047;-68
2021/11/15 10:11:08;;;;;;;30.08;11.40;;;;;;;;;;5100344;28;20079;-68
2021/11/15 10:13:35;;;;;;;27.45;11.02;;;;;;;;;;5118931;28;20042;-69
2021/11/15 10:16:03;;;;;;;26.83;9.27;;;;;;;;;;5118349;28;20097;-70
2021/11/15 10:18:32;;;;;;;26.13;10.85;;;;;;;;;;5099354;28;20097;-69
2021/11/15 10:20:58;;;;;;;24.52;10.60;;;;;;;;;;5119638;28;20043;-69
2021/11/15 10:23:44;;;;;;;26.33;10.90;;;;;;;;;;5097294;28;20048;-68
2021/11/15 10:26:12;;;;;;;35.22;12.25;;;;;;;;;;5097193;28;20131;-69
2021/11/15 10:28:38;;;;;;;28.75;10.05;;;;;;;;;;5095926;28;20050;-72
2021/11/15 10:31:04;;;;;;;26.95;10.73;;;;;;;;;;5094212;28;20460;-78
2021/11/15 10:33:35;;;;;;;27.42;11.27;;;;;;;;;;5097057;28;20043;-78
2021/11/15 10:36:01;;;;;;;31.60;10.93;;;;;;;;;;5100922;28;20047;-78
2021/11/15 10:38:49;;;;;;;27.88;10.18;;;;;;;;;;5096392;28;20035;-76
2021/11/15 10:41:21;;;;;;;23.33;10.38;;;;;;;;;;5089600;28;20055;-67
2021/11/15 10:43:56;;;;;;;21.40;8.70;;;;;;;;;;5097810;28;20039;-71
2021/11/15 10:46:33;;;;;;;26.23;10.32;;;;;;;;;;5094810;28;20124;-74
2021/11/15 10:49:00;;;;;;;27.10;10.05;;;;;;;;;;5095086;28;20078;-74
2021/11/15 10:51:47;;;;;;;21.73;7.72;;;;;;;;;;5102441;28;20075;-74
2021/11/15 10:54:38;;;;;;;21.65;9.05;;;;;;;;;;5092096;28;20048;-76
2021/11/15 10:57:23;;;;;;;24.52;9.80;;;;;;;;;;5097389;28;20051;-75
2021/11/15 11:00:12;;;;;;;26.90;10.93;;;;;;;;;;5101191;28;20051;-68
2021/11/15 11:02:39;;;;;;;;;;;;;;;;;;5085673;28;20148;-72
2021/11/15 11:05:05;;;;;;;33.30;11.68;;;;;;;;;;5099718;28;19924;-70
2021/11/15 11:07:31;;;;;;;33.75;10.65;;;;;;;;;;5114208;28;20051;-67
2021/11/15 11:10:00;;;;;;;28.88;10.27;;;;;;;;;;5113694;28;20044;-64
2021/11/15 11:12:34;;;;;;;24.77;10.32;;;;;;;;;;5118300;28;20138;-63
2021/11/15 11:15:41;;;;;;;35.10;12.27;;;;;;;;;;5117539;28;20664;-63
2021/11/15 11:18:19;;;;;;;46.83;16.65;;;;;;;;;;5018172;28;20057;-67
2021/11/15 11:21:13;;;;;;;53.83;16.73;;;;;;;;;;5002621;28;20061;-65
2021/11/15 11:26:23;;;;;;;68.68;23.10;;;;;;;;;;5001518;28;20059;-70
2021/11/15 11:28:58;;;;;;;79.90;27.38;;;;;;;;;;5009850;28;20056;-71
2021/11/15 11:31:24;;;;;;;91.70;31.77;;;;;;;;;;5003871;28;20057;-73
2021/11/15 11:33:51;;;;;;;89.32;29.08;;;;;;;;;;5001358;28;20576;-69
2021/11/15 11:36:17;;;;;;;94.10;31.08;;;;;;;;;;5017236;28;20053;-69
2021/11/15 11:38:44;;;;;;;91.72;31.63;;;;;;;;;;5022393;28;20142;-72
2021/11/15 11:41:11;;;;;;;82.57;30.25;;;;;;;;;;5013731;28;20045;-69
2021/11/15 11:43:38;;;;;;;86.70;29.73;;;;;;;;;;5018586;28;20045;-71
2021/11/15 11:46:04;;;;;;;93.68;32.28;;;;;;;;;;5000042;28;20061;-70
2021/11/15 11:48:30;;;;;;;91.00;30.20;;;;;;;;;;5034691;28;20043;-70
2021/11/15 11:50:57;;;;;;;94.05;32.78;;;;;;;;;;5115227;28;20059;-67
2021/11/15 11:53:24;;;;;;;87.85;31.35;;;;;;;;;;5095500;28;20489;-66
2021/11/15 11:55:51;;;;;;;85.75;30.92;;;;;;;;;;5095739;28;20058;-78
2021/11/15 11:58:26;;;;;;;88.35;29.88;;;;;;;;;;5094645;28;20040;-70
2021/11/15 12:00:53;;;;;;;92.55;32.50;;;;;;;;;;5094515;28;20059;-67
2021/11/15 12:03:19;;;;;;;94.10;32.22;;;;;;;;;;5114701;28;20043;-71
2021/11/15 12:05:46;;;;;;;95.68;33.50;;;;;;;;;;5095608;28;20047;-67
2021/11/15 12:08:12;;;;;;;105.30;33.78;;;;;;;;;;5114717;28;20055;-70
2021/11/15 12:10:42;;;;;;;95.05;30.33;;;;;;;;;;5094298;28;20049;-69
2021/11/15 12:13:09;;;;;;;101.38;36.13;;;;;;;;;;5115743;28;20056;-71
2021/11/15 12:15:39;;;;;;;96.07;34.83;;;;;;;;;;5116640;28;20036;-71
2021/11/15 12:18:09;;;;;;;77.43;25.80;;;;;;;;;;5096885;28;20062;-69
2021/11/15 12:20:55;;;;;;;86.85;29.63;;;;;;;;;;5102963;28;20039;-71
2021/11/15 12:23:21;;;;;;;96.88;34.38;;;;;;;;;;5114248;28;20043;-69
2021/11/15 12:26:03;;;;;;;96.15;35.00;;;;;;;;;;5115503;28;20504;-70
2021/11/15 12:28:30;;;;;;;86.13;32.75;;;;;;;;;;5096120;28;20063;-70
2021/11/15 12:30:58;;;;;;;96.72;34.60;;;;;;;;;;5116990;28;20108;-70
2021/11/15 12:33:26;;;;;;;101.25;35.03;;;;;;;;;;5097389;28;20040;-70
2021/11/15 12:35:56;;;;;;;81.05;30.73;;;;;;;;;;5097526;28;20054;-70
2021/11/15 12:38:41;;;;;;;88.88;32.20;;;;;;;;;;5114905;28;20035;-69
2021/11/15 12:41:17;;;;;;;79.35;27.02;;;;;;;;;;5098737;28;20066;-69
2021/11/15 12:44:02;;;;;;;96.75;30.27;;;;;;;;;;5116209;28;20130;-70
2021/11/15 12:46:37;;;;;;;98.47;34.50;;;;;;;;;;5096452;28;20135;-70
2021/11/15 12:49:22;;;;;;;106.72;33.75;;;;;;;;;;5119874;28;20059;-70
2021/11/15 12:52:04;;;;;;;101.50;34.60;;;;;;;;;;5099278;28;20059;-69
2021/11/15 12:54:30;;;;;;;91.88;34.55;;;;;;;;;;5095611;28;20048;-76
2021/11/15 12:57:00;;;;;;;94.53;33.35;;;;;;;;;;5092349;28;20056;-79
2021/11/15 12:59:26;;;;;;;94.05;33.33;;;;;;;;;;5070032;28;20144;-69
2021/11/15 13:01:52;;;;;;;98.78;33.40;;;;;;;;;;5110770;28;20038;-76
2021/11/15 13:04:18;;;;;;;90.32;34.03;;;;;;;;;;5093890;28;20446;-70
2021/11/15 13:06:44;;;;;;;76.93;28.92;;;;;;;;;;5092659;28;20079;-72
2021/11/15 13:09:14;;;;;;;89.65;35.05;;;;;;;;;;5090555;28;20047;-71
2021/11/15 13:11:40;;;;;;;93.18;35.25;;;;;;;;;;5087760;28;20052;-66
2021/11/15 13:14:06;;;;;;;93.80;36.30;;;;;;;;;;5105953;28;20044;-70
2021/11/15 13:16:33;;;;;;;87.80;31.23;;;;;;;;;;5114465;28;21729;-66
2021/11/15 13:18:59;;;;;;;77.88;26.75;;;;;;;;;;5093910;28;20048;-66
2021/11/15 13:21:25;;;;;;;87.40;34.22;;;;;;;;;;5111963;28;20040;-65
2021/11/15 13:23:53;;;;;;;85.38;32.97;;;;;;;;;;5115264;28;20039;-65
2021/11/15 13:26:19;;;;;;;58.38;20.83;;;;;;;;;;5117570;28;20039;-70
2021/11/15 13:28:46;;;;;;;81.75;29.00;;;;;;;;;;5095680;28;20051;-71
2021/11/15 13:31:13;;;;;;;85.53;33.47;;;;;;;;;;5091918;28;20768;-72
2021/11/15 13:33:39;;;;;;;77.68;25.38;;;;;;;;;;5093449;28;20036;-71
2021/11/15 13:36:06;;;;;;;78.35;30.60;;;;;;;;;;5094946;28;20047;-70
2021/11/15 13:38:38;;;;;;;79.90;31.98;;;;;;;;;;5093958;28;20066;-70
2021/11/15 13:41:04;;;;;;;82.93;31.77;;;;;;;;;;5090236;28;20079;-72
2021/11/15 13:43:30;;;;;;;86.10;34.08;;;;;;;;;;5109353;28;20043;-70
2021/11/15 13:45:56;;;;;;;86.85;30.70;;;;;;;;;;5110736;28;20040;-71
2021/11/15 13:48:24;;;;;;;95.07;33.90;;;;;;;;;;5109180;28;20052;-70
2021/11/15 13:50:51;;;;;;;80.90;31.45;;;;;;;;;;5110539;28;20043;-70
2021/11/15 13:53:17;;;;;;;66.53;27.15;;;;;;;;;;5090174;28;20072;-70
2021/11/15 13:55:44;;;;;;;84.13;32.13;;;;;;;;;;5100443;28;20039;-71
2021/11/15 13:58:11;;;;;;;87.15;34.72;;;;;;;;;;5090966;28;20047;-68
2021/11/15 14:00:38;;;;;;;83.45;30.10;;;;;;;;;;5112134;28;20043;-67
2021/11/15 14:03:04;;;;;;;91.07;33.78;;;;;;;;;;5093783;28;20047;-66
2021/11/15 14:05:32;;;;;;;87.20;34.60;;;;;;;;;;5114001;28;20043;-69
2021/11/15 14:07:59;;;;;;;82.22;32.53;;;;;;;;;;5089818;28;20259;-71
2021/11/15 14:10:25;;;;;;;84.88;31.73;;;;;;;;;;5090545;28;20085;-72
2021/11/15 14:12:51;;;;;;;88.63;34.67;;;;;;;;;;5077637;28;20051;-70
2021/11/15 14:15:17;;;;;;;83.72;31.38;;;;;;;;;;5076671;28;20047;-71
2021/11/15 14:17:44;;;;;;;83.00;31.52;;;;;;;;;;5114489;28;20043;-71
2021/11/15 14:20:11;;;;;;;86.18;35.42;;;;;;;;;;5108076;28;20047;-66
2021/11/15 14:22:37;;;;;;;94.47;35.10;;;;;;;;;;5110121;28;20059;-71
2021/11/15 14:25:07;;;;;;;92.40;35.35;;;;;;;;;;5091668;28;20188;-70
2021/11/15 14:27:33;;;;;;;86.38;34.25;;;;;;;;;;5088477;28;20056;-70